sensor_id;sensor_type;location;lat;lon;timestamp;P1;durP1;ratioP1;P2;durP2;ratioP2
239;SDS011;104;53.590;10.004;2023-07-02T00:01:53;2.37;;;2.23;;
239;SDS011;104;53.590;10.004;2023-07-02T00:04:26;3.70;;;2.40;;
239;SDS011;104;53.590;10.004;2023-07-02T00:06:54;2.53;;;2.33;;
239;SDS011;104;53.590;10.004;2023-07-02T00:09:23;2.50;;;2.30;;
239;SDS011;104;53.590;10.004;2023-07-02T00:11:50;3.27;;;2.60;;
239;SDS011;104;53.590;10.004;2023-07-02T00:14:18;2.90;;;2.43;;
239;SDS011;104;53.590;10.004;2023-07-02T00:16:46;3.97;;;2.40;;
239;SDS011;104;53.590;10.004;2023-07-02T00:19:14;2.20;;;2.00;;
239;SDS011;104;53.590;10.004;2023-07-02T00:21:41;2.77;;;2.50;;
239;SDS011;104;53.590;10.004;2023-07-02T00:24:09;2.90;;;2.40;;
239;SDS011;104;53.590;10.004;2023-07-02T00:34:39;2.83;;;2.50;;
239;SDS011;104;53.590;10.004;2023-07-02T00:37:06;3.50;;;2.87;;
239;SDS011;104;53.590;10.004;2023-07-02T00:39:33;7.40;;;2.97;;
239;SDS011;104;53.590;10.004;2023-07-02T00:42:01;4.90;;;2.70;;
239;SDS011;104;53.590;10.004;2023-07-02T00:44:29;3.70;;;2.80;;
239;SDS011;104;53.590;10.004;2023-07-02T00:46:56;2.83;;;2.63;;
239;SDS011;104;53.590;10.004;2023-07-02T00:49:24;3.10;;;2.73;;
239;SDS011;104;53.590;10.004;2023-07-02T00:51:52;3.30;;;3.07;;
239;SDS011;104;53.590;10.004;2023-07-02T00:54:20;2.87;;;2.67;;
239;SDS011;104;53.590;10.004;2023-07-02T00:56:47;2.80;;;2.60;;
239;SDS011;104;53.590;10.004;2023-07-02T00:59:15;6.30;;;2.73;;
239;SDS011;104;53.590;10.004;2023-07-02T01:01:42;3.03;;;2.83;;
239;SDS011;104;53.590;10.004;2023-07-02T01:04:16;3.17;;;2.97;;
239;SDS011;104;53.590;10.004;2023-07-02T01:06:43;2.93;;;2.73;;
239;SDS011;104;53.590;10.004;2023-07-02T01:09:12;3.20;;;3.00;;
239;SDS011;104;53.590;10.004;2023-07-02T01:11:40;3.07;;;2.87;;
239;SDS011;104;53.590;10.004;2023-07-02T01:14:08;6.00;;;2.90;;
239;SDS011;104;53.590;10.004;2023-07-02T01:16:35;4.47;;;3.13;;
239;SDS011;104;53.590;10.004;2023-07-02T01:19:04;4.07;;;3.23;;
239;SDS011;104;53.590;10.004;2023-07-02T01:21:33;11.10;;;4.43;;
239;SDS011;104;53.590;10.004;2023-07-02T01:24:01;5.20;;;4.00;;
239;SDS011;104;53.590;10.004;2023-07-02T01:26:29;3.67;;;3.47;;
239;SDS011;104;53.590;10.004;2023-07-02T01:28:58;5.23;;;3.63;;
239;SDS011;104;53.590;10.004;2023-07-02T01:31:26;3.90;;;3.70;;
239;SDS011;104;53.590;10.004;2023-07-02T01:33:53;9.50;;;4.03;;
239;SDS011;104;53.590;10.004;2023-07-02T01:36:20;3.83;;;3.57;;
239;SDS011;104;53.590;10.004;2023-07-02T01:38:49;5.43;;;4.17;;
239;SDS011;104;53.590;10.004;2023-07-02T01:41:16;6.50;;;4.40;;
239;SDS011;104;53.590;10.004;2023-07-02T01:43:43;4.07;;;3.90;;
239;SDS011;104;53.590;10.004;2023-07-02T01:46:10;4.50;;;3.70;;
239;SDS011;104;53.590;10.004;2023-07-02T01:48:38;6.90;;;3.77;;
239;SDS011;104;53.590;10.004;2023-07-02T01:51:05;4.70;;;4.13;;
239;SDS011;104;53.590;10.004;2023-07-02T01:53:32;6.93;;;4.23;;
239;SDS011;104;53.590;10.004;2023-07-02T01:56:01;5.50;;;3.77;;
239;SDS011;104;53.590;10.004;2023-07-02T01:58:28;8.43;;;3.67;;
239;SDS011;104;53.590;10.004;2023-07-02T02:00:55;3.60;;;3.40;;
239;SDS011;104;53.590;10.004;2023-07-02T02:03:23;6.40;;;3.73;;
239;SDS011;104;53.590;10.004;2023-07-02T02:05:50;3.90;;;3.70;;
239;SDS011;104;53.590;10.004;2023-07-02T02:08:18;4.63;;;4.17;;
239;SDS011;104;53.590;10.004;2023-07-02T02:10:45;5.67;;;3.90;;
239;SDS011;104;53.590;10.004;2023-07-02T02:13:14;7.70;;;4.60;;
239;SDS011;104;53.590;10.004;2023-07-02T02:15:41;4.47;;;4.20;;
239;SDS011;104;53.590;10.004;2023-07-02T02:18:08;4.27;;;3.87;;
239;SDS011;104;53.590;10.004;2023-07-02T02:20:36;4.60;;;4.07;;
239;SDS011;104;53.590;10.004;2023-07-02T02:23:03;3.83;;;3.63;;
239;SDS011;104;53.590;10.004;2023-07-02T02:25:30;4.03;;;3.70;;
239;SDS011;104;53.590;10.004;2023-07-02T02:27:58;6.13;;;3.77;;
239;SDS011;104;53.590;10.004;2023-07-02T02:30:26;6.60;;;3.50;;
239;SDS011;104;53.590;10.004;2023-07-02T02:32:54;3.70;;;3.50;;
239;SDS011;104;53.590;10.004;2023-07-02T02:35:21;3.60;;;3.40;;
239;SDS011;104;53.590;10.004;2023-07-02T02:37:48;4.73;;;3.27;;
239;SDS011;104;53.590;10.004;2023-07-02T02:40:15;4.47;;;3.23;;
239;SDS011;104;53.590;10.004;2023-07-02T02:42:43;3.73;;;3.53;;
239;SDS011;104;53.590;10.004;2023-07-02T02:45:10;9.17;;;3.87;;
239;SDS011;104;53.590;10.004;2023-07-02T02:47:39;5.20;;;3.43;;
239;SDS011;104;53.590;10.004;2023-07-02T02:50:07;3.80;;;3.60;;
239;SDS011;104;53.590;10.004;2023-07-02T02:52:35;4.27;;;4.00;;
239;SDS011;104;53.590;10.004;2023-07-02T02:55:03;4.30;;;4.00;;
239;SDS011;104;53.590;10.004;2023-07-02T02:57:31;3.67;;;3.50;;
239;SDS011;104;53.590;10.004;2023-07-02T02:59:58;4.27;;;3.60;;
239;SDS011;104;53.590;10.004;2023-07-02T03:02:26;3.93;;;3.60;;
239;SDS011;104;53.590;10.004;2023-07-02T03:04:54;5.80;;;3.97;;
239;SDS011;104;53.590;10.004;2023-07-02T03:07:27;3.93;;;3.73;;
239;SDS011;104;53.590;10.004;2023-07-02T03:09:54;4.47;;;3.50;;
239;SDS011;104;53.590;10.004;2023-07-02T03:12:21;4.00;;;3.57;;
239;SDS011;104;53.590;10.004;2023-07-02T03:14:49;8.43;;;3.87;;
239;SDS011;104;53.590;10.004;2023-07-02T03:17:18;3.60;;;3.40;;
239;SDS011;104;53.590;10.004;2023-07-02T03:19:45;4.17;;;3.90;;
239;SDS011;104;53.590;10.004;2023-07-02T03:22:14;7.53;;;4.00;;
239;SDS011;104;53.590;10.004;2023-07-02T03:24:41;6.93;;;3.90;;
239;SDS011;104;53.590;10.004;2023-07-02T03:27:09;7.87;;;3.87;;
239;SDS011;104;53.590;10.004;2023-07-02T03:29:36;9.23;;;4.30;;
239;SDS011;104;53.590;10.004;2023-07-02T03:32:04;5.30;;;3.90;;
239;SDS011;104;53.590;10.004;2023-07-02T03:34:31;12.90;;;4.73;;
239;SDS011;104;53.590;10.004;2023-07-02T03:36:59;7.83;;;4.10;;
239;SDS011;104;53.590;10.004;2023-07-02T03:39:28;7.57;;;4.20;;
239;SDS011;104;53.590;10.004;2023-07-02T03:41:55;4.07;;;3.87;;
239;SDS011;104;53.590;10.004;2023-07-02T03:44:22;6.73;;;4.30;;
239;SDS011;104;53.590;10.004;2023-07-02T03:46:50;4.43;;;4.13;;
239;SDS011;104;53.590;10.004;2023-07-02T03:49:17;4.63;;;4.40;;
239;SDS011;104;53.590;10.004;2023-07-02T03:51:44;5.80;;;3.80;;
239;SDS011;104;53.590;10.004;2023-07-02T03:54:11;6.53;;;4.10;;
239;SDS011;104;53.590;10.004;2023-07-02T03:56:40;4.80;;;3.90;;
239;SDS011;104;53.590;10.004;2023-07-02T03:59:08;6.00;;;4.50;;
239;SDS011;104;53.590;10.004;2023-07-02T04:01:37;4.53;;;4.30;;
239;SDS011;104;53.590;10.004;2023-07-02T04:04:04;4.43;;;4.10;;
239;SDS011;104;53.590;10.004;2023-07-02T04:06:32;4.37;;;4.10;;
239;SDS011;104;53.590;10.004;2023-07-02T04:09:00;3.87;;;3.67;;
239;SDS011;104;53.590;10.004;2023-07-02T04:11:27;4.20;;;3.60;;
239;SDS011;104;53.590;10.004;2023-07-02T04:13:56;3.87;;;3.67;;
239;SDS011;104;53.590;10.004;2023-07-02T04:37:08;6.07;;;4.17;;
239;SDS011;104;53.590;10.004;2023-07-02T04:39:36;5.83;;;3.73;;
239;SDS011;104;53.590;10.004;2023-07-02T04:42:04;9.50;;;3.90;;
239;SDS011;104;53.590;10.004;2023-07-02T04:44:32;4.63;;;4.03;;
239;SDS011;104;53.590;10.004;2023-07-02T04:47:00;9.90;;;4.13;;
239;SDS011;104;53.590;10.004;2023-07-02T04:49:27;6.10;;;4.20;;
239;SDS011;104;53.590;10.004;2023-07-02T04:51:54;4.90;;;4.60;;
239;SDS011;104;53.590;10.004;2023-07-02T04:54:23;6.37;;;4.10;;
239;SDS011;104;53.590;10.004;2023-07-02T04:56:50;3.90;;;3.70;;
239;SDS011;104;53.590;10.004;2023-07-02T04:59:21;4.70;;;4.10;;
239;SDS011;104;53.590;10.004;2023-07-02T05:01:48;10.77;;;3.63;;
239;SDS011;104;53.590;10.004;2023-07-02T05:04:15;4.60;;;4.30;;
239;SDS011;104;53.590;10.004;2023-07-02T05:06:43;7.63;;;4.30;;
239;SDS011;104;53.590;10.004;2023-07-02T05:09:10;4.47;;;3.97;;
239;SDS011;104;53.590;10.004;2023-07-02T05:11:40;5.40;;;4.00;;
239;SDS011;104;53.590;10.004;2023-07-02T05:14:07;4.63;;;4.17;;
239;SDS011;104;53.590;10.004;2023-07-02T05:16:34;3.47;;;3.30;;
239;SDS011;104;53.590;10.004;2023-07-02T05:19:01;8.00;;;4.20;;
239;SDS011;104;53.590;10.004;2023-07-02T05:21:29;8.23;;;4.37;;
239;SDS011;104;53.590;10.004;2023-07-02T05:23:56;5.97;;;4.60;;
239;SDS011;104;53.590;10.004;2023-07-02T05:26:23;4.73;;;4.10;;
239;SDS011;104;53.590;10.004;2023-07-02T05:28:53;4.20;;;3.90;;
239;SDS011;104;53.590;10.004;2023-07-02T05:31:20;4.67;;;4.13;;
239;SDS011;104;53.590;10.004;2023-07-02T05:33:48;5.00;;;4.23;;
239;SDS011;104;53.590;10.004;2023-07-02T05:36:16;4.50;;;3.63;;
239;SDS011;104;53.590;10.004;2023-07-02T05:38:43;7.63;;;3.73;;
239;SDS011;104;53.590;10.004;2023-07-02T05:41:10;7.37;;;3.50;;
239;SDS011;104;53.590;10.004;2023-07-02T05:43:38;5.63;;;4.37;;
239;SDS011;104;53.590;10.004;2023-07-02T05:46:07;3.80;;;3.60;;
239;SDS011;104;53.590;10.004;2023-07-02T05:48:34;3.97;;;3.70;;
239;SDS011;104;53.590;10.004;2023-07-02T07:51:39;17.17;;;8.90;;
239;SDS011;104;53.590;10.004;2023-07-02T07:54:06;13.63;;;8.43;;
239;SDS011;104;53.590;10.004;2023-07-02T07:56:33;14.93;;;9.07;;
239;SDS011;104;53.590;10.004;2023-07-02T07:59:01;20.80;;;9.43;;
239;SDS011;104;53.590;10.004;2023-07-02T08:01:29;17.13;;;9.57;;
239;SDS011;104;53.590;10.004;2023-07-02T08:03:56;15.30;;;9.10;;
239;SDS011;104;53.590;10.004;2023-07-02T08:06:24;22.20;;;10.30;;
239;SDS011;104;53.590;10.004;2023-07-02T08:08:54;23.33;;;10.20;;
239;SDS011;104;53.590;10.004;2023-07-02T08:11:21;26.10;;;10.80;;
239;SDS011;104;53.590;10.004;2023-07-02T08:13:49;20.90;;;10.43;;
239;SDS011;104;53.590;10.004;2023-07-02T08:16:16;19.37;;;11.20;;
239;SDS011;104;53.590;10.004;2023-07-02T08:18:43;22.37;;;11.40;;
239;SDS011;104;53.590;10.004;2023-07-02T08:21:10;20.87;;;11.73;;
239;SDS011;104;53.590;10.004;2023-07-02T08:23:38;23.03;;;12.20;;
239;SDS011;104;53.590;10.004;2023-07-02T12:24:52;20.50;;;11.50;;
239;SDS011;104;53.590;10.004;2023-07-02T12:27:21;23.60;;;11.73;;
239;SDS011;104;53.590;10.004;2023-07-02T12:29:52;22.03;;;10.40;;
239;SDS011;104;53.590;10.004;2023-07-02T12:32:20;21.17;;;11.40;;
239;SDS011;104;53.590;10.004;2023-07-02T12:34:47;24.30;;;12.13;;
239;SDS011;104;53.590;10.004;2023-07-02T14:19:20;15.90;;;9.13;;
239;SDS011;104;53.590;10.004;2023-07-02T14:21:48;16.20;;;10.23;;
239;SDS011;104;53.590;10.004;2023-07-02T14:24:16;14.30;;;10.07;;
239;SDS011;104;53.590;10.004;2023-07-02T14:26:43;18.27;;;9.57;;
239;SDS011;104;53.590;10.004;2023-07-02T14:29:10;15.83;;;9.37;;
239;SDS011;104;53.590;10.004;2023-07-02T14:31:38;18.60;;;10.20;;
239;SDS011;104;53.590;10.004;2023-07-02T14:34:05;15.13;;;10.37;;
239;SDS011;104;53.590;10.004;2023-07-02T14:36:34;20.00;;;10.40;;
239;SDS011;104;53.590;10.004;2023-07-02T14:39:01;27.70;;;10.93;;
239;SDS011;104;53.590;10.004;2023-07-02T14:41:28;18.77;;;10.13;;
239;SDS011;104;53.590;10.004;2023-07-02T14:44:00;15.37;;;9.97;;
239;SDS011;104;53.590;10.004;2023-07-02T14:46:28;16.77;;;9.90;;
239;SDS011;104;53.590;10.004;2023-07-02T14:48:57;22.03;;;10.17;;
239;SDS011;104;53.590;10.004;2023-07-02T14:51:29;16.40;;;10.60;;
239;SDS011;104;53.590;10.004;2023-07-02T14:53:57;30.23;;;10.87;;
239;SDS011;104;53.590;10.004;2023-07-02T14:56:26;27.07;;;12.13;;
239;SDS011;104;53.590;10.004;2023-07-02T14:58:54;21.97;;;11.50;;
239;SDS011;104;53.590;10.004;2023-07-02T15:01:22;20.40;;;11.40;;
239;SDS011;104;53.590;10.004;2023-07-02T15:03:49;21.40;;;11.60;;
239;SDS011;104;53.590;10.004;2023-07-02T15:06:17;19.33;;;11.37;;
239;SDS011;104;53.590;10.004;2023-07-02T15:08:44;18.40;;;10.80;;
239;SDS011;104;53.590;10.004;2023-07-02T15:11:14;19.67;;;10.73;;
239;SDS011;104;53.590;10.004;2023-07-02T15:13:41;16.40;;;9.77;;
239;SDS011;104;53.590;10.004;2023-07-02T15:16:10;18.60;;;11.10;;
239;SDS011;104;53.590;10.004;2023-07-02T15:18:38;21.47;;;11.47;;
239;SDS011;104;53.590;10.004;2023-07-02T15:21:06;31.93;;;13.07;;
239;SDS011;104;53.590;10.004;2023-07-02T15:23:34;23.33;;;11.50;;
239;SDS011;104;53.590;10.004;2023-07-02T15:26:02;18.37;;;11.60;;
239;SDS011;104;53.590;10.004;2023-07-02T15:28:31;19.37;;;11.47;;
239;SDS011;104;53.590;10.004;2023-07-02T15:31:01;20.60;;;11.53;;
239;SDS011;104;53.590;10.004;2023-07-02T15:33:28;22.10;;;11.80;;
239;SDS011;104;53.590;10.004;2023-07-02T15:35:58;27.03;;;12.30;;
239;SDS011;104;53.590;10.004;2023-07-02T15:38:26;24.20;;;12.60;;
239;SDS011;104;53.590;10.004;2023-07-02T15:41:03;22.90;;;12.60;;
239;SDS011;104;53.590;10.004;2023-07-02T15:43:32;27.07;;;12.80;;
239;SDS011;104;53.590;10.004;2023-07-02T15:46:00;29.97;;;14.50;;
239;SDS011;104;53.590;10.004;2023-07-02T15:48:27;23.93;;;12.73;;
239;SDS011;104;53.590;10.004;2023-07-02T15:50:55;20.30;;;12.60;;
239;SDS011;104;53.590;10.004;2023-07-02T15:53:23;21.63;;;12.33;;
239;SDS011;104;53.590;10.004;2023-07-02T15:55:54;24.30;;;12.97;;
239;SDS011;104;53.590;10.004;2023-07-02T15:58:22;23.47;;;12.77;;
239;SDS011;104;53.590;10.004;2023-07-02T16:00:51;23.40;;;13.53;;
239;SDS011;104;53.590;10.004;2023-07-02T16:03:19;27.17;;;13.13;;
239;SDS011;104;53.590;10.004;2023-07-02T16:05:46;23.90;;;13.20;;
239;SDS011;104;53.590;10.004;2023-07-02T16:08:14;22.17;;;12.30;;
239;SDS011;104;53.590;10.004;2023-07-02T16:10:42;27.30;;;12.90;;
239;SDS011;104;53.590;10.004;2023-07-02T16:13:09;22.50;;;12.90;;
239;SDS011;104;53.590;10.004;2023-07-02T16:15:37;22.20;;;12.63;;
239;SDS011;104;53.590;10.004;2023-07-02T16:18:07;23.23;;;13.53;;
239;SDS011;104;53.590;10.004;2023-07-02T16:20:34;24.40;;;12.70;;
239;SDS011;104;53.590;10.004;2023-07-02T16:23:02;23.93;;;12.63;;
239;SDS011;104;53.590;10.004;2023-07-02T16:25:31;25.13;;;13.43;;
239;SDS011;104;53.590;10.004;2023-07-02T16:27:58;21.70;;;12.37;;
239;SDS011;104;53.590;10.004;2023-07-02T16:30:28;36.60;;;14.60;;
239;SDS011;104;53.590;10.004;2023-07-02T16:32:59;20.60;;;13.20;;
239;SDS011;104;53.590;10.004;2023-07-02T16:35:30;24.90;;;13.40;;
239;SDS011;104;53.590;10.004;2023-07-02T16:38:11;22.77;;;13.60;;
239;SDS011;104;53.590;10.004;2023-07-02T16:40:41;28.20;;;14.67;;
239;SDS011;104;53.590;10.004;2023-07-02T16:43:10;24.97;;;13.60;;
239;SDS011;104;53.590;10.004;2023-07-02T16:45:38;28.33;;;13.67;;
239;SDS011;104;53.590;10.004;2023-07-02T16:48:19;30.57;;;13.90;;
239;SDS011;104;53.590;10.004;2023-07-02T16:50:48;23.63;;;13.43;;
239;SDS011;104;53.590;10.004;2023-07-02T16:53:23;23.03;;;14.60;;
239;SDS011;104;53.590;10.004;2023-07-02T16:55:52;23.83;;;12.80;;
239;SDS011;104;53.590;10.004;2023-07-02T16:58:19;22.00;;;12.57;;
239;SDS011;104;53.590;10.004;2023-07-02T17:00:47;21.50;;;12.83;;
239;SDS011;104;53.590;10.004;2023-07-02T17:03:40;24.40;;;13.90;;
239;SDS011;104;53.590;10.004;2023-07-02T17:09:29;24.90;;;13.67;;
239;SDS011;104;53.590;10.004;2023-07-02T17:11:58;27.13;;;13.60;;
239;SDS011;104;53.590;10.004;2023-07-02T17:14:27;32.37;;;13.33;;
239;SDS011;104;53.590;10.004;2023-07-02T17:16:57;26.47;;;13.43;;
239;SDS011;104;53.590;10.004;2023-07-02T17:19:27;21.03;;;13.07;;
239;SDS011;104;53.590;10.004;2023-07-02T17:21:56;27.00;;;13.20;;
239;SDS011;104;53.590;10.004;2023-07-02T17:24:25;18.83;;;12.60;;
239;SDS011;104;53.590;10.004;2023-07-02T17:26:54;25.80;;;13.67;;
239;SDS011;104;53.590;10.004;2023-07-02T17:29:21;21.90;;;13.30;;
239;SDS011;104;53.590;10.004;2023-07-02T17:31:50;21.90;;;13.00;;
239;SDS011;104;53.590;10.004;2023-07-02T17:34:18;22.50;;;13.20;;
239;SDS011;104;53.590;10.004;2023-07-02T18:23:34;25.40;;;13.73;;
239;SDS011;104;53.590;10.004;2023-07-02T18:26:02;24.73;;;13.37;;
239;SDS011;104;53.590;10.004;2023-07-02T18:28:30;25.37;;;13.47;;
239;SDS011;104;53.590;10.004;2023-07-02T18:30:58;29.23;;;13.33;;
239;SDS011;104;53.590;10.004;2023-07-02T18:33:26;25.63;;;13.53;;
239;SDS011;104;53.590;10.004;2023-07-02T18:35:54;45.37;;;15.60;;
239;SDS011;104;53.590;10.004;2023-07-02T18:38:21;24.93;;;14.50;;
239;SDS011;104;53.590;10.004;2023-07-02T18:40:58;23.10;;;14.00;;
239;SDS011;104;53.590;10.004;2023-07-02T18:43:26;24.30;;;14.10;;
239;SDS011;104;53.590;10.004;2023-07-02T18:45:53;35.83;;;14.60;;
239;SDS011;104;53.590;10.004;2023-07-02T18:48:21;28.30;;;14.93;;
239;SDS011;104;53.590;10.004;2023-07-02T18:50:48;24.47;;;14.73;;
239;SDS011;104;53.590;10.004;2023-07-02T18:53:16;24.83;;;15.33;;
239;SDS011;104;53.590;10.004;2023-07-02T18:55:54;30.23;;;15.60;;
239;SDS011;104;53.590;10.004;2023-07-02T18:58:24;39.00;;;15.50;;
239;SDS011;104;53.590;10.004;2023-07-02T19:00:51;29.53;;;16.17;;
239;SDS011;104;53.590;10.004;2023-07-02T19:03:19;25.00;;;15.10;;
239;SDS011;104;53.590;10.004;2023-07-02T19:05:47;26.80;;;14.63;;
239;SDS011;104;53.590;10.004;2023-07-02T19:08:15;24.70;;;14.37;;
239;SDS011;104;53.590;10.004;2023-07-02T19:10:43;26.77;;;14.10;;
239;SDS011;104;53.590;10.004;2023-07-02T19:13:12;32.93;;;14.90;;
239;SDS011;104;53.590;10.004;2023-07-02T19:15:40;26.73;;;13.90;;
239;SDS011;104;53.590;10.004;2023-07-02T19:18:08;24.57;;;14.20;;
239;SDS011;104;53.590;10.004;2023-07-02T19:20:35;26.63;;;13.97;;
239;SDS011;104;53.590;10.004;2023-07-02T19:23:03;26.83;;;13.63;;
239;SDS011;104;53.590;10.004;2023-07-02T19:25:30;27.70;;;14.80;;
239;SDS011;104;53.590;10.004;2023-07-02T19:27:58;26.00;;;14.00;;
239;SDS011;104;53.590;10.004;2023-07-02T19:30:27;36.83;;;16.23;;
239;SDS011;104;53.590;10.004;2023-07-02T19:32:54;29.23;;;15.77;;
239;SDS011;104;53.590;10.004;2023-07-02T19:35:22;29.87;;;15.60;;
239;SDS011;104;53.590;10.004;2023-07-02T19:37:50;27.63;;;15.17;;
239;SDS011;104;53.590;10.004;2023-07-02T19:40:17;32.90;;;14.27;;
239;SDS011;104;53.590;10.004;2023-07-02T19:42:45;27.93;;;14.93;;
239;SDS011;104;53.590;10.004;2023-07-02T19:45:13;33.13;;;14.90;;
239;SDS011;104;53.590;10.004;2023-07-02T20:01:09;34.30;;;16.13;;
239;SDS011;104;53.590;10.004;2023-07-02T20:03:37;34.53;;;16.63;;
239;SDS011;104;53.590;10.004;2023-07-02T20:06:05;33.20;;;14.90;;
239;SDS011;104;53.590;10.004;2023-07-02T22:03:00;34.43;;;16.80;;
239;SDS011;104;53.590;10.004;2023-07-02T22:05:27;37.53;;;16.10;;
239;SDS011;104;53.590;10.004;2023-07-02T22:07:54;33.60;;;17.47;;
239;SDS011;104;53.590;10.004;2023-07-02T22:10:22;33.10;;;17.70;;
239;SDS011;104;53.590;10.004;2023-07-02T22:12:49;36.37;;;16.00;;
239;SDS011;104;53.590;10.004;2023-07-02T22:15:17;30.60;;;16.37;;
239;SDS011;104;53.590;10.004;2023-07-02T22:17:45;34.70;;;16.13;;
239;SDS011;104;53.590;10.004;2023-07-02T22:20:13;29.00;;;15.70;;
239;SDS011;104;53.590;10.004;2023-07-02T22:22:44;37.20;;;16.13;;
239;SDS011;104;53.590;10.004;2023-07-02T22:25:12;35.33;;;17.40;;
239;SDS011;104;53.590;10.004;2023-07-02T22:27:39;34.83;;;17.50;;
239;SDS011;104;53.590;10.004;2023-07-02T22:30:08;34.40;;;17.00;;
239;SDS011;104;53.590;10.004;2023-07-02T22:32:35;35.57;;;17.37;;
239;SDS011;104;53.590;10.004;2023-07-02T22:35:03;29.87;;;17.43;;
239;SDS011;104;53.590;10.004;2023-07-02T22:37:32;34.43;;;17.30;;
239;SDS011;104;53.590;10.004;2023-07-02T22:40:00;28.93;;;17.07;;
239;SDS011;104;53.590;10.004;2023-07-02T22:42:30;32.63;;;18.20;;
239;SDS011;104;53.590;10.004;2023-07-02T22:44:57;32.27;;;18.37;;
239;SDS011;104;53.590;10.004;2023-07-02T22:47:25;41.70;;;17.97;;
239;SDS011;104;53.590;10.004;2023-07-02T22:49:52;45.03;;;17.73;;
239;SDS011;104;53.590;10.004;2023-07-02T22:52:19;36.37;;;17.60;;
239;SDS011;104;53.590;10.004;2023-07-02T22:54:48;35.40;;;17.77;;
239;SDS011;104;53.590;10.004;2023-07-02T22:57:18;34.53;;;17.37;;
239;SDS011;104;53.590;10.004;2023-07-02T22:59:46;33.63;;;17.27;;
239;SDS011;104;53.590;10.004;2023-07-02T23:02:13;35.50;;;18.70;;
239;SDS011;104;53.590;10.004;2023-07-02T23:04:40;32.60;;;18.60;;
239;SDS011;104;53.590;10.004;2023-07-02T23:07:08;36.30;;;18.13;;
239;SDS011;104;53.590;10.004;2023-07-02T23:09:35;34.40;;;17.90;;
239;SDS011;104;53.590;10.004;2023-07-02T23:12:04;33.43;;;17.30;;
239;SDS011;104;53.590;10.004;2023-07-02T23:14:32;34.87;;;17.77;;
239;SDS011;104;53.590;10.004;2023-07-02T23:16:59;32.03;;;16.97;;
239;SDS011;104;53.590;10.004;2023-07-02T23:19:26;35.57;;;16.90;;
239;SDS011;104;53.590;10.004;2023-07-02T23:21:54;38.20;;;17.87;;
239;SDS011;104;53.590;10.004;2023-07-02T23:24:21;29.00;;;17.23;;
239;SDS011;104;53.590;10.004;2023-07-02T23:26:49;34.30;;;17.53;;
239;SDS011;104;53.590;10.004;2023-07-02T23:29:18;34.40;;;18.17;;
239;SDS011;104;53.590;10.004;2023-07-02T23:31:46;34.50;;;17.40;;
239;SDS011;104;53.590;10.004;2023-07-02T23:34:13;33.67;;;18.07;;
239;SDS011;104;53.590;10.004;2023-07-02T23:36:40;31.50;;;16.57;;
239;SDS011;104;53.590;10.004;2023-07-02T23:39:09;38.00;;;17.53;;
239;SDS011;104;53.590;10.004;2023-07-02T23:41:37;28.27;;;15.20;;
239;SDS011;104;53.590;10.004;2023-07-02T23:44:04;34.97;;;16.87;;
239;SDS011;104;53.590;10.004;2023-07-02T23:46:33;33.50;;;17.67;;
239;SDS011;104;53.590;10.004;2023-07-02T23:49:01;30.67;;;17.33;;
239;SDS011;104;53.590;10.004;2023-07-02T23:51:28;34.03;;;17.67;;
239;SDS011;104;53.590;10.004;2023-07-02T23:53:55;31.67;;;17.20;;
239;SDS011;104;53.590;10.004;2023-07-02T23:56:22;34.27;;;17.43;;
239;SDS011;104;53.590;10.004;2023-07-02T23:58:49;33.07;;;17.60;;
